createdAt,value
2019-04-27T00:04:40.705Z,6.40
2019-04-27T00:09:50.198Z,3.67
2019-04-27T00:14:52.988Z,3.77
2019-04-27T00:19:58.048Z,4.17
2019-04-27T00:25:03.334Z,4.50
2019-04-27T00:30:07.220Z,5.87
2019-04-27T00:35:13.739Z,4.15
2019-04-27T00:40:23.460Z,5.55
2019-04-27T00:45:27.122Z,6.15
2019-04-27T00:50:30.560Z,5.40
2019-04-27T00:55:35.629Z,3.98
2019-04-27T01:00:46.457Z,3.27
2019-04-27T01:05:50.024Z,4.37
2019-04-27T01:10:53.858Z,5.37
2019-04-27T01:15:57.563Z,4.80
2019-04-27T01:21:01.244Z,6.58
2019-04-27T01:26:06.637Z,5.58
2019-04-27T01:31:11.775Z,6.45
2019-04-27T01:36:15.203Z,8.15
2019-04-27T01:41:19.150Z,6.08
2019-04-27T01:46:23.076Z,7.35
2019-04-27T01:51:26.503Z,6.90
2019-04-27T01:56:29.934Z,6.12
2019-04-27T02:01:38.957Z,6.17
2019-04-27T02:06:42.767Z,6.90
2019-04-27T02:11:46.205Z,7.72
2019-04-27T02:16:49.615Z,5.47
2019-04-27T02:21:53.133Z,6.33
2019-04-27T02:26:56.565Z,10.63
2019-04-27T02:32:10.882Z,7.97
2019-04-27T02:37:14.648Z,5.83
2019-04-27T02:42:20.072Z,8.68
2019-04-27T02:47:23.686Z,8.75
2019-04-27T02:52:30.123Z,7.62
2019-04-27T02:57:33.755Z,7.20
2019-04-27T03:02:40.194Z,5.10
2019-04-27T03:07:43.893Z,6.50
2019-04-27T03:12:50.004Z,4.35
2019-04-27T03:18:10.164Z,5.87
2019-04-27T03:23:14.204Z,7.30
2019-04-27T03:28:20.049Z,6.90
2019-04-27T03:33:22.975Z,9.25
2019-04-27T03:38:26.822Z,7.35
2019-04-27T03:43:30.407Z,12.27
2019-04-27T03:48:33.856Z,10.45
2019-04-27T03:53:39.703Z,11.18
2019-04-27T03:58:52.002Z,7.45
2019-04-27T04:03:55.581Z,10.03
2019-04-27T04:09:00.194Z,7.53
2019-04-27T04:14:05.688Z,8.35
2019-04-27T04:19:10.583Z,7.85
2019-04-27T04:24:14.014Z,8.48
2019-04-27T04:29:20.087Z,5.15
2019-04-27T04:34:23.094Z,3.95
2019-04-27T04:39:26.786Z,6.03
2019-04-27T04:44:41.081Z,5.28
2019-04-27T04:49:44.516Z,4.30
2019-04-27T04:54:49.529Z,6.20
2019-04-27T04:59:53.198Z,4.75
2019-04-27T05:04:56.657Z,6.22
2019-04-27T05:10:00.091Z,4.87
2019-04-27T05:15:04.358Z,6.97
2019-04-27T05:20:24.686Z,6.50
2019-04-27T05:25:28.598Z,7.62
2019-04-27T05:30:32.262Z,6.40
2019-04-27T05:35:35.701Z,7.70
2019-04-27T05:40:39.822Z,7.87
2019-04-27T05:46:29.779Z,6.30
2019-04-27T05:51:36.932Z,6.95
2019-04-27T05:56:36.130Z,6.37
2019-04-27T06:01:39.557Z,5.97
2019-04-27T06:06:42.989Z,6.72
2019-04-27T06:11:46.413Z,5.10
2019-04-27T06:16:51.398Z,4.40
2019-04-27T06:21:55.375Z,5.10
2019-04-27T06:26:59.687Z,8.83
2019-04-27T06:32:03.250Z,5.85
2019-04-27T06:37:06.662Z,3.55
2019-04-27T06:42:18.546Z,5.97
2019-04-27T06:47:15.493Z,5.67
2019-04-27T06:52:18.921Z,5.97
2019-04-27T06:57:22.350Z,5.55
2019-04-27T07:02:25.777Z,6.80
2019-04-27T07:07:29.604Z,4.90
2019-04-27T07:12:33.333Z,4.83
2019-04-27T07:17:36.753Z,7.37
2019-04-27T07:22:40.171Z,5.17
2019-04-27T07:27:43.864Z,5.80
2019-04-27T07:32:48.813Z,5.95
2019-04-27T07:37:52.653Z,8.78
2019-04-27T07:42:59.356Z,7.22
2019-04-27T07:48:03.256Z,8.40
2019-04-27T07:53:08.570Z,10.38
2019-04-27T07:58:12.206Z,12.60
2019-04-27T08:03:15.645Z,11.10
2019-04-27T08:08:19.131Z,12.75
2019-04-27T08:13:22.579Z,16.25
2019-04-27T08:18:26.161Z,9.70
2019-04-27T08:23:31.139Z,13.43
2019-04-27T08:28:36.276Z,14.53
2019-04-27T08:33:39.702Z,10.93
2019-04-27T08:38:43.128Z,16.48
2019-04-27T08:43:46.566Z,11.22
2019-04-27T08:48:49.996Z,14.20
2019-04-27T08:53:53.396Z,8.90
2019-04-27T08:58:57.074Z,7.50
2019-04-27T09:04:00.501Z,6.65
2019-04-27T09:09:09.470Z,4.90
2019-04-27T09:14:23.607Z,4.70
2019-04-27T09:19:31.840Z,6.67
2019-04-27T09:24:35.360Z,4.67
2019-04-27T09:29:39.482Z,3.30
2019-04-27T09:34:43.416Z,5.12
2019-04-27T09:39:47.186Z,5.00
2019-04-27T09:44:50.870Z,3.70
2019-04-27T09:49:54.289Z,3.80
2019-04-27T09:54:57.718Z,2.60
2019-04-27T10:00:01.141Z,2.90
2019-04-27T10:05:06.124Z,2.20
2019-04-27T10:10:10.188Z,5.55
2019-04-27T10:15:14.202Z,2.23
2019-04-27T10:20:17.628Z,2.30
2019-04-27T10:25:22.702Z,2.45
2019-04-27T10:30:26.724Z,1.65
2019-04-27T10:35:30.414Z,2.83
2019-04-27T10:40:34.044Z,5.55
2019-04-27T10:45:38.013Z,8.85
2019-04-27T10:50:41.929Z,8.55
2019-04-27T10:55:46.425Z,8.73
2019-04-27T11:00:58.481Z,6.92
2019-04-27T11:06:05.758Z,9.18
2019-04-27T11:11:09.545Z,8.40
2019-04-27T11:16:13.007Z,10.70
2019-04-27T11:21:16.524Z,8.25
2019-04-27T11:26:19.964Z,6.95
2019-04-27T11:31:23.426Z,9.43
2019-04-27T11:36:28.579Z,11.03
2019-04-27T11:41:32.292Z,8.40
2019-04-27T11:46:35.742Z,7.33
2019-04-27T11:51:39.370Z,7.50
2019-04-27T11:56:42.822Z,7.95
2019-04-27T12:01:46.498Z,7.72
2019-04-27T12:06:50.186Z,11.93
2019-04-27T12:11:57.460Z,7.28
2019-04-27T12:16:59.903Z,6.22
2019-04-27T12:22:03.586Z,10.15
2019-04-27T12:27:08.649Z,4.97
2019-04-27T12:32:12.160Z,3.60
2019-04-27T12:37:15.788Z,4.67
2019-04-27T12:42:21.094Z,5.47
2019-04-27T12:47:26.316Z,2.67
2019-04-27T12:52:29.937Z,1.77
2019-04-27T12:57:36.427Z,3.02
2019-04-27T13:02:40.238Z,3.08
2019-04-27T13:07:43.931Z,2.00
2019-04-27T13:12:47.446Z,2.83
2019-04-27T13:17:51.161Z,5.75
2019-04-27T13:22:54.850Z,3.85
2019-04-27T13:27:58.293Z,3.80
2019-04-27T13:33:01.728Z,3.12
2019-04-27T13:38:05.406Z,3.35
2019-04-27T13:43:25.970Z,8.68
2019-04-27T13:48:31.105Z,9.95
2019-04-27T13:53:36.642Z,5.80
2019-04-27T13:58:40.206Z,6.30
2019-04-27T14:03:45.181Z,4.40
2019-04-27T14:08:48.738Z,5.97
2019-04-27T14:13:52.176Z,7.42
2019-04-27T14:18:55.692Z,6.35
2019-04-27T14:23:59.371Z,6.12
2019-04-27T14:29:03.156Z,4.33
2019-04-27T14:34:06.597Z,6.45
2019-04-27T14:39:11.692Z,2.87
2019-04-27T14:44:15.131Z,7.95
2019-04-27T14:49:19.908Z,3.20
2019-04-27T14:54:23.857Z,1.05
2019-04-27T14:59:27.309Z,2.37
2019-04-27T15:04:31.776Z,1.85
2019-04-27T15:09:36.415Z,1.95
2019-04-27T15:14:39.891Z,5.08
2019-04-27T15:19:48.368Z,3.40
2019-04-27T15:30:59.548Z,4.60
2019-04-27T15:36:14.629Z,2.35
2019-04-27T15:41:19.476Z,2.87
2019-04-27T15:46:23.402Z,5.03
2019-04-27T15:51:28.320Z,3.37
2019-04-27T15:56:35.285Z,6.87
2019-04-27T16:01:39.505Z,6.25
2019-04-27T16:06:47.668Z,4.60
2019-04-27T16:11:57.706Z,3.70
2019-04-27T16:16:53.170Z,6.72
2019-04-27T16:21:58.979Z,5.22
2019-04-27T16:27:02.257Z,9.40
2019-04-27T16:32:09.651Z,5.05
2019-04-27T16:37:13.907Z,4.90
2019-04-27T16:42:18.628Z,6.45
2019-04-27T16:47:24.576Z,8.30
2019-04-27T16:52:29.694Z,7.97
2019-04-27T16:57:37.454Z,4.83
2019-04-27T17:02:40.247Z,7.15
2019-04-27T17:07:44.141Z,7.25
2019-04-27T17:12:48.689Z,5.10
2019-04-27T17:17:58.936Z,8.75
2019-04-27T17:23:02.625Z,6.55
2019-04-27T17:28:08.021Z,7.97
2019-04-27T17:33:44.604Z,8.33
2019-04-27T17:39:08.686Z,6.45
2019-04-27T17:44:19.200Z,10.88
2019-04-27T17:49:18.927Z,8.50
2019-04-27T17:54:22.716Z,4.53
2019-04-27T17:59:26.130Z,8.60
2019-04-27T18:04:32.981Z,11.50
2019-04-27T18:09:39.993Z,5.40
2019-04-27T18:14:41.283Z,4.15
2019-04-27T18:19:46.651Z,10.25
2019-04-27T18:25:03.399Z,9.38
2019-04-27T18:30:21.706Z,7.50
2019-04-27T18:35:32.365Z,8.48
2019-04-27T18:40:35.823Z,7.10
2019-04-27T18:45:44.710Z,7.70
2019-04-27T18:50:52.377Z,10.60
2019-04-27T18:56:10.439Z,7.20
2019-04-27T19:01:13.284Z,7.00
2019-04-27T19:06:18.785Z,11.00
2019-04-27T19:11:23.658Z,7.47
2019-04-27T19:21:31.065Z,9.58
2019-04-27T19:31:43.585Z,14.63
2019-04-27T19:36:48.869Z,9.28
2019-04-27T19:42:00.261Z,11.35
2019-04-27T19:47:00.001Z,22.17
2019-04-27T19:52:05.153Z,19.12
2019-04-27T19:57:31.183Z,18.20
2019-04-27T20:08:21.988Z,12.20
2019-04-27T20:13:25.665Z,12.18
2019-04-27T20:18:29.259Z,10.00
2019-04-27T20:23:32.780Z,11.63
2019-04-27T20:28:38.471Z,9.50
2019-04-27T20:33:41.655Z,12.47
2019-04-27T20:38:45.248Z,14.00
2019-04-27T20:43:50.909Z,14.73
2019-04-27T20:48:54.413Z,11.63
2019-04-27T20:54:01.675Z,12.43
2019-04-27T20:59:06.150Z,11.95
2019-04-27T21:09:17.620Z,15.05
2019-04-27T21:14:21.785Z,17.77
2019-04-27T21:19:25.397Z,13.55
2019-04-27T21:24:30.775Z,12.73
2019-04-27T21:29:34.234Z,19.23
2019-04-27T21:34:37.687Z,15.88
2019-04-27T21:39:41.351Z,16.80
2019-04-27T21:44:44.781Z,17.35
2019-04-27T21:49:48.504Z,14.10
2019-04-27T21:54:53.061Z,18.12
2019-04-27T21:59:56.507Z,14.03
2019-04-27T22:04:59.942Z,14.70
2019-04-27T22:10:04.777Z,13.80
2019-04-27T22:15:08.338Z,19.00
2019-04-27T22:20:12.353Z,11.53
2019-04-27T22:25:15.868Z,13.13
2019-04-27T22:30:20.974Z,18.48
2019-04-27T22:35:24.767Z,12.37
2019-04-27T22:40:46.606Z,13.45
2019-04-27T22:45:51.067Z,19.87
2019-04-27T22:50:54.556Z,14.50
2019-04-27T22:56:16.109Z,18.65
2019-04-27T23:01:36.513Z,12.95
2019-04-27T23:06:41.739Z,15.53
2019-04-27T23:11:45.417Z,14.63
2019-04-27T23:17:03.145Z,17.80
2019-04-27T23:22:06.831Z,16.30
2019-04-27T23:27:11.474Z,17.37
2019-04-27T23:37:28.659Z,19.90
2019-04-27T23:42:32.094Z,15.05
2019-04-27T23:47:35.721Z,10.18
2019-04-27T23:52:58.724Z,12.88
2019-04-27T23:58:02.529Z,14.73
